sensor_id;sensor_type;location;lat;lon;timestamp;P1;durP1;ratioP1;P2;durP2;ratioP2
29686;SDS011;16599;47.078;15.536;2023-07-24T00:00:10;0.80;;;0.80;;
29686;SDS011;16599;47.078;15.536;2023-07-24T00:02:42;1.08;;;1.02;;
29686;SDS011;16599;47.078;15.536;2023-07-24T00:05:10;1.25;;;0.50;;
29686;SDS011;16599;47.078;15.536;2023-07-24T00:08:07;1.33;;;1.20;;
29686;SDS011;16599;47.078;15.536;2023-07-24T00:10:52;0.85;;;0.85;;
29686;SDS011;16599;47.078;15.536;2023-07-24T00:13:32;0.30;;;0.30;;
29686;SDS011;16599;47.078;15.536;2023-07-24T00:16:22;0.60;;;0.60;;
29686;SDS011;16599;47.078;15.536;2023-07-24T00:18:54;0.68;;;0.63;;
29686;SDS011;16599;47.078;15.536;2023-07-24T00:21:27;0.82;;;0.77;;
29686;SDS011;16599;47.078;15.536;2023-07-24T00:23:54;4.43;;;0.98;;
29686;SDS011;16599;47.078;15.536;2023-07-24T00:26:28;7.65;;;1.13;;
29686;SDS011;16599;47.078;15.536;2023-07-24T01:07:21;1.30;;;0.80;;
29686;SDS011;16599;47.078;15.536;2023-07-24T01:18:52;0.32;;;0.32;;
29686;SDS011;16599;47.078;15.536;2023-07-24T01:38:50;0.60;;;0.60;;
29686;SDS011;16599;47.078;15.536;2023-07-24T01:41:24;5.97;;;1.02;;
29686;SDS011;16599;47.078;15.536;2023-07-24T01:50:31;0.60;;;0.60;;
29686;SDS011;16599;47.078;15.536;2023-07-24T03:14:21;0.30;;;0.30;;
29686;SDS011;16599;47.078;15.536;2023-07-24T03:19:19;0.98;;;0.98;;
29686;SDS011;16599;47.078;15.536;2023-07-24T03:48:45;0.75;;;0.75;;
29686;SDS011;16599;47.078;15.536;2023-07-24T03:51:12;0.45;;;0.45;;
29686;SDS011;16599;47.078;15.536;2023-07-24T03:53:49;0.88;;;0.70;;
29686;SDS011;16599;47.078;15.536;2023-07-24T03:56:24;0.90;;;0.80;;
29686;SDS011;16599;47.078;15.536;2023-07-24T03:58:52;0.30;;;0.30;;
29686;SDS011;16599;47.078;15.536;2023-07-24T04:01:20;0.57;;;0.57;;
29686;SDS011;16599;47.078;15.536;2023-07-24T04:03:49;1.08;;;0.95;;
29686;SDS011;16599;47.078;15.536;2023-07-24T04:06:30;0.10;;;0.10;;
29686;SDS011;16599;47.078;15.536;2023-07-24T04:08:58;0.22;;;0.22;;
29686;SDS011;16599;47.078;15.536;2023-07-24T04:11:24;3.25;;;0.50;;
29686;SDS011;16599;47.078;15.536;2023-07-24T04:13:51;1.60;;;0.43;;
29686;SDS011;16599;47.078;15.536;2023-07-24T04:16:18;0.30;;;0.30;;
29686;SDS011;16599;47.078;15.536;2023-07-24T04:18:45;2.85;;;0.70;;
29686;SDS011;16599;47.078;15.536;2023-07-24T04:21:12;0.32;;;0.32;;
29686;SDS011;16599;47.078;15.536;2023-07-24T04:23:39;0.63;;;0.63;;
29686;SDS011;16599;47.078;15.536;2023-07-24T04:26:06;0.60;;;0.60;;
29686;SDS011;16599;47.078;15.536;2023-07-24T04:28:33;0.63;;;0.63;;
29686;SDS011;16599;47.078;15.536;2023-07-24T04:31:00;0.40;;;0.40;;
29686;SDS011;16599;47.078;15.536;2023-07-24T04:33:28;1.02;;;0.88;;
29686;SDS011;16599;47.078;15.536;2023-07-24T04:35:56;0.52;;;0.52;;
29686;SDS011;16599;47.078;15.536;2023-07-24T04:38:23;0.13;;;0.13;;
29686;SDS011;16599;47.078;15.536;2023-07-24T04:40:50;2.42;;;0.63;;
29686;SDS011;16599;47.078;15.536;2023-07-24T04:43:17;2.40;;;0.75;;
29686;SDS011;16599;47.078;15.536;2023-07-24T04:45:44;0.38;;;0.38;;
29686;SDS011;16599;47.078;15.536;2023-07-24T04:48:11;0.70;;;0.70;;
29686;SDS011;16599;47.078;15.536;2023-07-24T04:50:38;0.80;;;0.80;;
29686;SDS011;16599;47.078;15.536;2023-07-24T04:53:04;0.68;;;0.52;;
29686;SDS011;16599;47.078;15.536;2023-07-24T04:55:31;1.95;;;1.02;;
29686;SDS011;16599;47.078;15.536;2023-07-24T04:57:58;1.02;;;0.65;;
29686;SDS011;16599;47.078;15.536;2023-07-24T05:00:25;0.30;;;0.30;;
29686;SDS011;16599;47.078;15.536;2023-07-24T05:02:52;0.95;;;0.90;;
29686;SDS011;16599;47.078;15.536;2023-07-24T05:05:19;0.82;;;0.68;;
29686;SDS011;16599;47.078;15.536;2023-07-24T05:07:46;0.52;;;0.52;;
29686;SDS011;16599;47.078;15.536;2023-07-24T05:10:13;2.42;;;1.40;;
29686;SDS011;16599;47.078;15.536;2023-07-24T05:12:41;0.50;;;0.50;;
29686;SDS011;16599;47.078;15.536;2023-07-24T05:15:08;0.38;;;0.38;;
29686;SDS011;16599;47.078;15.536;2023-07-24T05:17:36;0.30;;;0.30;;
29686;SDS011;16599;47.078;15.536;2023-07-24T05:20:03;7.28;;;1.52;;
29686;SDS011;16599;47.078;15.536;2023-07-24T05:22:30;0.68;;;0.60;;
29686;SDS011;16599;47.078;15.536;2023-07-24T05:24:57;0.75;;;0.75;;
29686;SDS011;16599;47.078;15.536;2023-07-24T05:27:24;1.88;;;1.38;;
29686;SDS011;16599;47.078;15.536;2023-07-24T05:29:51;1.45;;;0.90;;
29686;SDS011;16599;47.078;15.536;2023-07-24T05:32:18;1.10;;;0.68;;
29686;SDS011;16599;47.078;15.536;2023-07-24T05:34:45;1.65;;;1.55;;
29686;SDS011;16599;47.078;15.536;2023-07-24T05:37:12;6.07;;;0.93;;
29686;SDS011;16599;47.078;15.536;2023-07-24T05:39:39;1.75;;;1.13;;
29686;SDS011;16599;47.078;15.536;2023-07-24T05:42:06;1.90;;;1.65;;
29686;SDS011;16599;47.078;15.536;2023-07-24T05:44:32;0.30;;;0.30;;
29686;SDS011;16599;47.078;15.536;2023-07-24T05:47:02;0.50;;;0.50;;
29686;SDS011;16599;47.078;15.536;2023-07-24T05:49:29;0.40;;;0.40;;
29686;SDS011;16599;47.078;15.536;2023-07-24T05:51:59;2.03;;;0.80;;
29686;SDS011;16599;47.078;15.536;2023-07-24T05:54:26;2.20;;;0.75;;
29686;SDS011;16599;47.078;15.536;2023-07-24T05:56:52;1.08;;;0.63;;
29686;SDS011;16599;47.078;15.536;2023-07-24T05:59:19;0.55;;;0.55;;
29686;SDS011;16599;47.078;15.536;2023-07-24T06:01:46;0.40;;;0.40;;
29686;SDS011;16599;47.078;15.536;2023-07-24T06:04:13;1.65;;;1.25;;
29686;SDS011;16599;47.078;15.536;2023-07-24T06:06:40;2.10;;;1.58;;
29686;SDS011;16599;47.078;15.536;2023-07-24T06:09:07;27.25;;;1.15;;
29686;SDS011;16599;47.078;15.536;2023-07-24T06:11:34;2.33;;;0.88;;
29686;SDS011;16599;47.078;15.536;2023-07-24T06:14:00;1.13;;;0.85;;
29686;SDS011;16599;47.078;15.536;2023-07-24T06:16:27;0.63;;;0.63;;
29686;SDS011;16599;47.078;15.536;2023-07-24T06:18:55;0.70;;;0.70;;
29686;SDS011;16599;47.078;15.536;2023-07-24T06:21:21;0.85;;;0.63;;
29686;SDS011;16599;47.078;15.536;2023-07-24T06:23:48;1.45;;;0.68;;
29686;SDS011;16599;47.078;15.536;2023-07-24T06:26:15;1.05;;;0.80;;
29686;SDS011;16599;47.078;15.536;2023-07-24T06:28:42;1.52;;;1.33;;
29686;SDS011;16599;47.078;15.536;2023-07-24T06:31:09;2.88;;;0.70;;
29686;SDS011;16599;47.078;15.536;2023-07-24T06:33:36;0.57;;;0.57;;
29686;SDS011;16599;47.078;15.536;2023-07-24T06:36:03;10.23;;;0.90;;
29686;SDS011;16599;47.078;15.536;2023-07-24T06:38:30;0.57;;;0.57;;
29686;SDS011;16599;47.078;15.536;2023-07-24T06:40:57;0.88;;;0.88;;
29686;SDS011;16599;47.078;15.536;2023-07-24T06:43:24;0.95;;;0.80;;
29686;SDS011;16599;47.078;15.536;2023-07-24T06:45:51;1.40;;;1.30;;
29686;SDS011;16599;47.078;15.536;2023-07-24T06:48:17;0.73;;;0.73;;
29686;SDS011;16599;47.078;15.536;2023-07-24T06:50:44;3.08;;;1.23;;
29686;SDS011;16599;47.078;15.536;2023-07-24T06:53:11;3.10;;;1.85;;
29686;SDS011;16599;47.078;15.536;2023-07-24T06:55:38;1.17;;;1.08;;
29686;SDS011;16599;47.078;15.536;2023-07-24T06:58:05;3.25;;;1.25;;
29686;SDS011;16599;47.078;15.536;2023-07-24T07:00:32;0.52;;;0.52;;
29686;SDS011;16599;47.078;15.536;2023-07-24T07:02:59;1.17;;;1.08;;
29686;SDS011;16599;47.078;15.536;2023-07-24T07:05:26;2.47;;;1.45;;
29686;SDS011;16599;47.078;15.536;2023-07-24T07:07:53;3.20;;;1.70;;
29686;SDS011;16599;47.078;15.536;2023-07-24T07:10:20;1.40;;;1.30;;
29686;SDS011;16599;47.078;15.536;2023-07-24T07:12:47;2.03;;;1.20;;
29686;SDS011;16599;47.078;15.536;2023-07-24T07:15:14;1.08;;;1.05;;
29686;SDS011;16599;47.078;15.536;2023-07-24T07:17:41;1.13;;;0.80;;
29686;SDS011;16599;47.078;15.536;2023-07-24T07:20:09;1.23;;;1.13;;
29686;SDS011;16599;47.078;15.536;2023-07-24T07:22:36;1.35;;;1.02;;
29686;SDS011;16599;47.078;15.536;2023-07-24T07:25:03;0.65;;;0.65;;
29686;SDS011;16599;47.078;15.536;2023-07-24T07:27:30;0.52;;;0.50;;
29686;SDS011;16599;47.078;15.536;2023-07-24T08:19:11;0.98;;;0.95;;
29686;SDS011;16599;47.078;15.536;2023-07-24T08:25:23;0.90;;;0.90;;
29686;SDS011;16599;47.078;15.536;2023-07-24T08:32:47;1.40;;;1.00;;
29686;SDS011;16599;47.078;15.536;2023-07-24T09:42:15;8.40;;;1.88;;
29686;SDS011;16599;47.078;15.536;2023-07-24T09:52:04;2.00;;;1.65;;
29686;SDS011;16599;47.078;15.536;2023-07-24T10:06:12;1.65;;;1.48;;
29686;SDS011;16599;47.078;15.536;2023-07-24T10:12:32;0.97;;;0.97;;
29686;SDS011;16599;47.078;15.536;2023-07-24T10:18:50;2.70;;;1.85;;
29686;SDS011;16599;47.078;15.536;2023-07-24T10:25:30;2.58;;;1.20;;
29686;SDS011;16599;47.078;15.536;2023-07-24T10:28:02;5.30;;;2.28;;
29686;SDS011;16599;47.078;15.536;2023-07-24T10:30:34;7.30;;;3.00;;
29686;SDS011;16599;47.078;15.536;2023-07-24T10:33:06;2.00;;;1.58;;
29686;SDS011;16599;47.078;15.536;2023-07-24T10:35:36;7.20;;;2.23;;
29686;SDS011;16599;47.078;15.536;2023-07-24T10:41:47;5.53;;;2.17;;
29686;SDS011;16599;47.078;15.536;2023-07-24T10:44:17;3.28;;;2.33;;
29686;SDS011;16599;47.078;15.536;2023-07-24T10:46:44;3.97;;;2.28;;
29686;SDS011;16599;47.078;15.536;2023-07-24T10:49:11;4.97;;;2.47;;
29686;SDS011;16599;47.078;15.536;2023-07-24T10:51:57;11.43;;;3.25;;
29686;SDS011;16599;47.078;15.536;2023-07-24T10:54:25;15.13;;;2.72;;
29686;SDS011;16599;47.078;15.536;2023-07-24T10:56:59;5.47;;;2.75;;
29686;SDS011;16599;47.078;15.536;2023-07-24T11:00:04;8.13;;;3.45;;
29686;SDS011;16599;47.078;15.536;2023-07-24T11:02:31;9.40;;;3.17;;
29686;SDS011;16599;47.078;15.536;2023-07-24T11:05:01;10.88;;;3.15;;
29686;SDS011;16599;47.078;15.536;2023-07-24T11:08:30;4.15;;;1.75;;
29686;SDS011;16599;47.078;15.536;2023-07-24T11:10:58;6.72;;;2.90;;
29686;SDS011;16599;47.078;15.536;2023-07-24T11:13:26;5.15;;;2.42;;
29686;SDS011;16599;47.078;15.536;2023-07-24T11:15:54;2.92;;;2.38;;
29686;SDS011;16599;47.078;15.536;2023-07-24T11:18:21;6.55;;;2.90;;
29686;SDS011;16599;47.078;15.536;2023-07-24T11:20:56;4.53;;;3.22;;
29686;SDS011;16599;47.078;15.536;2023-07-24T11:23:24;2.45;;;1.40;;
29686;SDS011;16599;47.078;15.536;2023-07-24T11:41:36;2.78;;;1.42;;
29686;SDS011;16599;47.078;15.536;2023-07-24T11:44:03;6.22;;;2.67;;
29686;SDS011;16599;47.078;15.536;2023-07-24T12:22:12;4.68;;;2.88;;
29686;SDS011;16599;47.078;15.536;2023-07-24T12:24:45;7.60;;;3.22;;
29686;SDS011;16599;47.078;15.536;2023-07-24T12:27:12;5.38;;;2.55;;
29686;SDS011;16599;47.078;15.536;2023-07-24T12:29:39;7.57;;;3.60;;
29686;SDS011;16599;47.078;15.536;2023-07-24T12:32:06;5.13;;;2.75;;
29686;SDS011;16599;47.078;15.536;2023-07-24T12:34:33;13.07;;;2.50;;
29686;SDS011;16599;47.078;15.536;2023-07-24T12:37:00;11.10;;;4.90;;
29686;SDS011;16599;47.078;15.536;2023-07-24T12:39:27;6.28;;;3.03;;
29686;SDS011;16599;47.078;15.536;2023-07-24T12:41:54;12.70;;;3.38;;
29686;SDS011;16599;47.078;15.536;2023-07-24T12:44:21;4.57;;;2.67;;
29686;SDS011;16599;47.078;15.536;2023-07-24T12:46:48;18.80;;;2.72;;
29686;SDS011;16599;47.078;15.536;2023-07-24T12:49:15;6.13;;;2.88;;
29686;SDS011;16599;47.078;15.536;2023-07-24T12:51:42;13.80;;;3.63;;
29686;SDS011;16599;47.078;15.536;2023-07-24T12:54:09;6.57;;;3.13;;
29686;SDS011;16599;47.078;15.536;2023-07-24T12:56:45;5.25;;;3.33;;
29686;SDS011;16599;47.078;15.536;2023-07-24T12:59:13;8.57;;;4.03;;
29686;SDS011;16599;47.078;15.536;2023-07-24T13:01:40;6.53;;;2.67;;
29686;SDS011;16599;47.078;15.536;2023-07-24T13:04:07;6.47;;;3.00;;
29686;SDS011;16599;47.078;15.536;2023-07-24T13:06:34;5.50;;;3.03;;
29686;SDS011;16599;47.078;15.536;2023-07-24T13:09:02;20.85;;;4.30;;
29686;SDS011;16599;47.078;15.536;2023-07-24T13:11:29;9.23;;;3.20;;
29686;SDS011;16599;47.078;15.536;2023-07-24T13:13:57;5.53;;;3.20;;
29686;SDS011;16599;47.078;15.536;2023-07-24T13:16:24;7.15;;;3.10;;
29686;SDS011;16599;47.078;15.536;2023-07-24T13:18:51;10.43;;;3.70;;
29686;SDS011;16599;47.078;15.536;2023-07-24T13:21:18;4.35;;;2.75;;
29686;SDS011;16599;47.078;15.536;2023-07-24T13:23:45;4.45;;;2.90;;
29686;SDS011;16599;47.078;15.536;2023-07-24T13:26:12;8.80;;;3.58;;
29686;SDS011;16599;47.078;15.536;2023-07-24T13:28:41;25.52;;;4.57;;
29686;SDS011;16599;47.078;15.536;2023-07-24T13:31:13;6.60;;;3.90;;
29686;SDS011;16599;47.078;15.536;2023-07-24T13:33:44;6.25;;;3.25;;
29686;SDS011;16599;47.078;15.536;2023-07-24T13:36:12;10.57;;;3.63;;
29686;SDS011;16599;47.078;15.536;2023-07-24T13:38:39;13.50;;;4.35;;
29686;SDS011;16599;47.078;15.536;2023-07-24T13:41:06;7.13;;;3.22;;
29686;SDS011;16599;47.078;15.536;2023-07-24T13:43:34;8.75;;;4.40;;
29686;SDS011;16599;47.078;15.536;2023-07-24T13:46:01;12.43;;;3.97;;
29686;SDS011;16599;47.078;15.536;2023-07-24T13:48:31;10.02;;;3.40;;
29686;SDS011;16599;47.078;15.536;2023-07-24T13:50:58;10.52;;;2.72;;
29686;SDS011;16599;47.078;15.536;2023-07-24T13:53:25;7.63;;;4.10;;
29686;SDS011;16599;47.078;15.536;2023-07-24T13:55:51;4.57;;;2.80;;
29686;SDS011;16599;47.078;15.536;2023-07-24T13:58:18;6.55;;;3.38;;
29686;SDS011;16599;47.078;15.536;2023-07-24T14:00:45;7.38;;;2.78;;
29686;SDS011;16599;47.078;15.536;2023-07-24T14:03:12;10.57;;;4.90;;
29686;SDS011;16599;47.078;15.536;2023-07-24T14:05:39;10.48;;;3.60;;
29686;SDS011;16599;47.078;15.536;2023-07-24T14:08:07;7.15;;;3.15;;
29686;SDS011;16599;47.078;15.536;2023-07-24T14:10:34;8.38;;;4.35;;
29686;SDS011;16599;47.078;15.536;2023-07-24T14:13:01;6.30;;;3.63;;
29686;SDS011;16599;47.078;15.536;2023-07-24T14:15:29;7.05;;;2.95;;
29686;SDS011;16599;47.078;15.536;2023-07-24T14:17:56;10.30;;;4.13;;
29686;SDS011;16599;47.078;15.536;2023-07-24T14:20:23;11.63;;;3.95;;
29686;SDS011;16599;47.078;15.536;2023-07-24T14:22:50;7.50;;;3.85;;
29686;SDS011;16599;47.078;15.536;2023-07-24T14:25:17;10.32;;;4.10;;
29686;SDS011;16599;47.078;15.536;2023-07-24T14:27:43;6.75;;;3.25;;
29686;SDS011;16599;47.078;15.536;2023-07-24T14:30:10;5.22;;;3.63;;
29686;SDS011;16599;47.078;15.536;2023-07-24T14:32:37;7.60;;;3.55;;
29686;SDS011;16599;47.078;15.536;2023-07-24T14:35:05;7.65;;;2.50;;
29686;SDS011;16599;47.078;15.536;2023-07-24T14:37:32;14.10;;;4.00;;
29686;SDS011;16599;47.078;15.536;2023-07-24T14:39:59;27.55;;;3.60;;
29686;SDS011;16599;47.078;15.536;2023-07-24T14:42:26;4.32;;;2.50;;
29686;SDS011;16599;47.078;15.536;2023-07-24T14:44:52;9.40;;;3.38;;
29686;SDS011;16599;47.078;15.536;2023-07-24T14:47:19;6.05;;;1.77;;
29686;SDS011;16599;47.078;15.536;2023-07-24T14:49:46;8.82;;;3.53;;
29686;SDS011;16599;47.078;15.536;2023-07-24T14:52:13;4.80;;;2.58;;
29686;SDS011;16599;47.078;15.536;2023-07-24T14:54:40;5.55;;;2.47;;
29686;SDS011;16599;47.078;15.536;2023-07-24T14:57:07;7.80;;;3.10;;
29686;SDS011;16599;47.078;15.536;2023-07-24T14:59:50;6.57;;;2.65;;
29686;SDS011;16599;47.078;15.536;2023-07-24T15:02:17;7.03;;;2.83;;
29686;SDS011;16599;47.078;15.536;2023-07-24T15:04:45;3.13;;;2.17;;
29686;SDS011;16599;47.078;15.536;2023-07-24T15:07:12;3.13;;;2.40;;
29686;SDS011;16599;47.078;15.536;2023-07-24T15:09:39;3.13;;;2.53;;
29686;SDS011;16599;47.078;15.536;2023-07-24T15:12:05;7.05;;;3.13;;
29686;SDS011;16599;47.078;15.536;2023-07-24T15:14:33;5.05;;;2.70;;
29686;SDS011;16599;47.078;15.536;2023-07-24T15:16:59;7.53;;;3.58;;
29686;SDS011;16599;47.078;15.536;2023-07-24T15:19:26;5.38;;;2.70;;
29686;SDS011;16599;47.078;15.536;2023-07-24T15:21:53;4.43;;;2.88;;
29686;SDS011;16599;47.078;15.536;2023-07-24T15:24:20;5.97;;;3.28;;
29686;SDS011;16599;47.078;15.536;2023-07-24T15:26:47;5.20;;;2.40;;
29686;SDS011;16599;47.078;15.536;2023-07-24T15:29:14;7.63;;;2.65;;
29686;SDS011;16599;47.078;15.536;2023-07-24T15:31:44;4.60;;;2.72;;
29686;SDS011;16599;47.078;15.536;2023-07-24T15:34:11;7.07;;;2.17;;
29686;SDS011;16599;47.078;15.536;2023-07-24T15:36:38;8.68;;;2.75;;
29686;SDS011;16599;47.078;15.536;2023-07-24T15:39:05;5.07;;;2.75;;
29686;SDS011;16599;47.078;15.536;2023-07-24T15:41:32;5.30;;;3.30;;
29686;SDS011;16599;47.078;15.536;2023-07-24T15:43:59;7.65;;;3.28;;
29686;SDS011;16599;47.078;15.536;2023-07-24T15:46:26;3.00;;;2.70;;
29686;SDS011;16599;47.078;15.536;2023-07-24T15:48:58;2.40;;;2.20;;
29686;SDS011;16599;47.078;15.536;2023-07-24T15:51:26;45.03;;;2.80;;
29686;SDS011;16599;47.078;15.536;2023-07-24T15:53:54;17.10;;;1.85;;
29686;SDS011;16599;47.078;15.536;2023-07-24T15:56:21;2.40;;;0.88;;
29686;SDS011;16599;47.078;15.536;2023-07-24T15:58:49;3.17;;;1.50;;
29686;SDS011;16599;47.078;15.536;2023-07-24T16:01:17;2.40;;;1.10;;
29686;SDS011;16599;47.078;15.536;2023-07-24T16:03:47;8.05;;;2.03;;
29686;SDS011;16599;47.078;15.536;2023-07-24T16:06:14;2.45;;;1.08;;
29686;SDS011;16599;47.078;15.536;2023-07-24T16:08:41;1.65;;;1.10;;
29686;SDS011;16599;47.078;15.536;2023-07-24T16:11:09;0.80;;;0.80;;
29686;SDS011;16599;47.078;15.536;2023-07-24T16:13:40;3.95;;;1.83;;
29686;SDS011;16599;47.078;15.536;2023-07-24T16:16:08;12.35;;;2.60;;
29686;SDS011;16599;47.078;15.536;2023-07-24T16:18:40;1.58;;;1.10;;
29686;SDS011;16599;47.078;15.536;2023-07-24T16:21:07;2.22;;;1.10;;
29686;SDS011;16599;47.078;15.536;2023-07-24T16:23:34;4.38;;;1.30;;
29686;SDS011;16599;47.078;15.536;2023-07-24T16:26:02;3.20;;;1.42;;
29686;SDS011;16599;47.078;15.536;2023-07-24T16:28:29;3.58;;;1.73;;
29686;SDS011;16599;47.078;15.536;2023-07-24T16:30:55;8.00;;;2.15;;
29686;SDS011;16599;47.078;15.536;2023-07-24T16:33:25;9.05;;;1.55;;
29686;SDS011;16599;47.078;15.536;2023-07-24T16:35:52;5.65;;;1.38;;
29686;SDS011;16599;47.078;15.536;2023-07-24T16:38:19;2.55;;;1.17;;
29686;SDS011;16599;47.078;15.536;2023-07-24T16:40:48;2.22;;;1.00;;
29686;SDS011;16599;47.078;15.536;2023-07-24T16:43:17;16.67;;;1.58;;
29686;SDS011;16599;47.078;15.536;2023-07-24T16:45:44;4.38;;;1.63;;
29686;SDS011;16599;47.078;15.536;2023-07-24T16:48:18;1.23;;;0.82;;
29686;SDS011;16599;47.078;15.536;2023-07-24T16:50:45;0.98;;;0.90;;
29686;SDS011;16599;47.078;15.536;2023-07-24T16:53:12;8.07;;;2.22;;
29686;SDS011;16599;47.078;15.536;2023-07-24T16:55:39;2.42;;;1.42;;
29686;SDS011;16599;47.078;15.536;2023-07-24T16:58:06;1.60;;;1.05;;
29686;SDS011;16599;47.078;15.536;2023-07-24T17:00:33;6.18;;;0.88;;
29686;SDS011;16599;47.078;15.536;2023-07-24T17:03:00;3.13;;;1.80;;
29686;SDS011;16599;47.078;15.536;2023-07-24T17:05:28;1.00;;;1.00;;
29686;SDS011;16599;47.078;15.536;2023-07-24T17:07:55;1.15;;;0.63;;
29686;SDS011;16599;47.078;15.536;2023-07-24T17:10:22;2.03;;;0.90;;
29686;SDS011;16599;47.078;15.536;2023-07-24T17:12:49;2.67;;;1.58;;
29686;SDS011;16599;47.078;15.536;2023-07-24T17:15:16;2.50;;;1.27;;
29686;SDS011;16599;47.078;15.536;2023-07-24T17:17:43;1.30;;;0.90;;
29686;SDS011;16599;47.078;15.536;2023-07-24T17:20:11;2.33;;;0.80;;
29686;SDS011;16599;47.078;15.536;2023-07-24T17:22:38;2.92;;;1.30;;
29686;SDS011;16599;47.078;15.536;2023-07-24T17:25:05;1.20;;;0.80;;
29686;SDS011;16599;47.078;15.536;2023-07-24T17:27:33;1.42;;;0.90;;
29686;SDS011;16599;47.078;15.536;2023-07-24T17:30:03;12.83;;;1.00;;
29686;SDS011;16599;47.078;15.536;2023-07-24T17:32:31;1.40;;;0.85;;
29686;SDS011;16599;47.078;15.536;2023-07-24T17:34:58;1.08;;;0.68;;
29686;SDS011;16599;47.078;15.536;2023-07-24T17:37:25;3.53;;;0.80;;
29686;SDS011;16599;47.078;15.536;2023-07-24T17:40:03;6.38;;;1.20;;
29686;SDS011;16599;47.078;15.536;2023-07-24T17:42:33;1.15;;;0.98;;
29686;SDS011;16599;47.078;15.536;2023-07-24T17:45:01;4.30;;;1.63;;
29686;SDS011;16599;47.078;15.536;2023-07-24T17:47:28;0.93;;;0.65;;
29686;SDS011;16599;47.078;15.536;2023-07-24T17:49:55;0.77;;;0.60;;
29686;SDS011;16599;47.078;15.536;2023-07-24T17:52:32;3.42;;;0.70;;
29686;SDS011;16599;47.078;15.536;2023-07-24T17:54:59;2.78;;;1.33;;
29686;SDS011;16599;47.078;15.536;2023-07-24T17:57:26;9.50;;;0.93;;
29686;SDS011;16599;47.078;15.536;2023-07-24T17:59:53;2.17;;;0.70;;
29686;SDS011;16599;47.078;15.536;2023-07-24T18:02:20;2.22;;;1.13;;
29686;SDS011;16599;47.078;15.536;2023-07-24T18:04:47;0.70;;;0.70;;
29686;SDS011;16599;47.078;15.536;2023-07-24T18:07:14;5.47;;;1.17;;
29686;SDS011;16599;47.078;15.536;2023-07-24T18:09:40;0.60;;;0.60;;
29686;SDS011;16599;47.078;15.536;2023-07-24T18:12:08;2.22;;;0.93;;
29686;SDS011;16599;47.078;15.536;2023-07-24T18:14:35;1.58;;;1.23;;
29686;SDS011;16599;47.078;15.536;2023-07-24T18:17:02;0.85;;;0.30;;
29686;SDS011;16599;47.078;15.536;2023-07-24T18:19:29;2.78;;;0.88;;
29686;SDS011;16599;47.078;15.536;2023-07-24T18:21:56;6.43;;;1.17;;
29686;SDS011;16599;47.078;15.536;2023-07-24T18:24:22;2.45;;;1.35;;
29686;SDS011;16599;47.078;15.536;2023-07-24T18:26:49;1.27;;;0.90;;
29686;SDS011;16599;47.078;15.536;2023-07-24T18:29:16;0.50;;;0.50;;
29686;SDS011;16599;47.078;15.536;2023-07-24T18:31:44;4.32;;;1.02;;
29686;SDS011;16599;47.078;15.536;2023-07-24T18:34:12;0.60;;;0.47;;
29686;SDS011;16599;47.078;15.536;2023-07-24T18:36:39;1.92;;;0.95;;
29686;SDS011;16599;47.078;15.536;2023-07-24T18:39:06;2.08;;;1.05;;
29686;SDS011;16599;47.078;15.536;2023-07-24T18:41:32;1.58;;;0.98;;
29686;SDS011;16599;47.078;15.536;2023-07-24T18:43:59;1.08;;;0.60;;
29686;SDS011;16599;47.078;15.536;2023-07-24T18:46:26;0.55;;;0.50;;
29686;SDS011;16599;47.078;15.536;2023-07-24T18:48:53;2.30;;;1.55;;
29686;SDS011;16599;47.078;15.536;2023-07-24T18:51:20;2.78;;;0.63;;
29686;SDS011;16599;47.078;15.536;2023-07-24T18:53:47;1.27;;;0.52;;
29686;SDS011;16599;47.078;15.536;2023-07-24T18:56:18;1.20;;;0.85;;
29686;SDS011;16599;47.078;15.536;2023-07-24T18:58:45;2.17;;;1.30;;
29686;SDS011;16599;47.078;15.536;2023-07-24T19:01:15;3.53;;;1.10;;
29686;SDS011;16599;47.078;15.536;2023-07-24T19:03:41;4.38;;;0.82;;
29686;SDS011;16599;47.078;15.536;2023-07-24T19:06:13;2.63;;;0.95;;
29686;SDS011;16599;47.078;15.536;2023-07-24T19:08:45;0.93;;;0.88;;
29686;SDS011;16599;47.078;15.536;2023-07-24T19:11:15;1.65;;;0.90;;
29686;SDS011;16599;47.078;15.536;2023-07-24T19:13:43;1.08;;;0.82;;
29686;SDS011;16599;47.078;15.536;2023-07-24T19:16:09;0.32;;;0.30;;
29686;SDS011;16599;47.078;15.536;2023-07-24T19:18:36;0.93;;;0.75;;
29686;SDS011;16599;47.078;15.536;2023-07-24T19:21:04;0.28;;;0.25;;
29686;SDS011;16599;47.078;15.536;2023-07-24T19:23:31;1.20;;;0.88;;
29686;SDS011;16599;47.078;15.536;2023-07-24T19:25:58;0.65;;;0.50;;
29686;SDS011;16599;47.078;15.536;2023-07-24T19:28:26;1.83;;;1.33;;
29686;SDS011;16599;47.078;15.536;2023-07-24T19:30:53;2.00;;;0.60;;
29686;SDS011;16599;47.078;15.536;2023-07-24T19:33:23;1.13;;;0.98;;
29686;SDS011;16599;47.078;15.536;2023-07-24T19:35:52;1.27;;;0.52;;
29686;SDS011;16599;47.078;15.536;2023-07-24T19:38:24;3.72;;;0.93;;
29686;SDS011;16599;47.078;15.536;2023-07-24T19:40:58;2.22;;;0.43;;
29686;SDS011;16599;47.078;15.536;2023-07-24T19:43:26;0.30;;;0.30;;
29686;SDS011;16599;47.078;15.536;2023-07-24T19:45:53;0.40;;;0.40;;
29686;SDS011;16599;47.078;15.536;2023-07-24T19:48:20;0.68;;;0.68;;
29686;SDS011;16599;47.078;15.536;2023-07-24T19:50:50;1.40;;;0.80;;
29686;SDS011;16599;47.078;15.536;2023-07-24T19:53:21;1.20;;;0.82;;
29686;SDS011;16599;47.078;15.536;2023-07-24T19:55:52;0.43;;;0.43;;
29686;SDS011;16599;47.078;15.536;2023-07-24T19:58:39;2.22;;;0.52;;
29686;SDS011;16599;47.078;15.536;2023-07-24T20:01:06;1.65;;;1.00;;
29686;SDS011;16599;47.078;15.536;2023-07-24T20:03:33;0.63;;;0.45;;
29686;SDS011;16599;47.078;15.536;2023-07-24T20:06:00;4.05;;;1.35;;
29686;SDS011;16599;47.078;15.536;2023-07-24T20:08:32;1.27;;;0.52;;
29686;SDS011;16599;47.078;15.536;2023-07-24T20:11:01;1.30;;;1.00;;
29686;SDS011;16599;47.078;15.536;2023-07-24T20:13:31;1.23;;;1.00;;
29686;SDS011;16599;47.078;15.536;2023-07-24T20:15:58;1.05;;;0.90;;
29686;SDS011;16599;47.078;15.536;2023-07-24T20:18:26;0.77;;;0.25;;
29686;SDS011;16599;47.078;15.536;2023-07-24T20:20:53;3.25;;;0.95;;
29686;SDS011;16599;47.078;15.536;2023-07-24T20:23:20;1.48;;;0.43;;
29686;SDS011;16599;47.078;15.536;2023-07-24T20:25:48;11.20;;;1.15;;
29686;SDS011;16599;47.078;15.536;2023-07-24T20:30:49;6.13;;;1.83;;
29686;SDS011;16599;47.078;15.536;2023-07-24T20:33:16;1.08;;;0.57;;
29686;SDS011;16599;47.078;15.536;2023-07-24T20:35:44;4.95;;;1.02;;
29686;SDS011;16599;47.078;15.536;2023-07-24T20:38:28;2.10;;;1.13;;
29686;SDS011;16599;47.078;15.536;2023-07-24T20:40:58;4.03;;;1.85;;
29686;SDS011;16599;47.078;15.536;2023-07-24T20:43:25;0.38;;;0.38;;
29686;SDS011;16599;47.078;15.536;2023-07-24T20:45:52;2.17;;;0.77;;
29686;SDS011;16599;47.078;15.536;2023-07-24T20:48:19;0.52;;;0.40;;
29686;SDS011;16599;47.078;15.536;2023-07-24T20:50:47;4.47;;;0.68;;
29686;SDS011;16599;47.078;15.536;2023-07-24T20:53:14;1.67;;;0.98;;
29686;SDS011;16599;47.078;15.536;2023-07-24T20:55:41;0.10;;;0.10;;
29686;SDS011;16599;47.078;15.536;2023-07-24T20:58:09;0.40;;;0.40;;
29686;SDS011;16599;47.078;15.536;2023-07-24T21:00:36;1.25;;;0.82;;
29686;SDS011;16599;47.078;15.536;2023-07-24T21:03:03;0.88;;;0.60;;
29686;SDS011;16599;47.078;15.536;2023-07-24T21:05:30;1.02;;;0.82;;
29686;SDS011;16599;47.078;15.536;2023-07-24T21:07:59;0.52;;;0.52;;
29686;SDS011;16599;47.078;15.536;2023-07-24T21:10:27;13.02;;;1.25;;
29686;SDS011;16599;47.078;15.536;2023-07-24T21:12:54;1.25;;;0.60;;
29686;SDS011;16599;47.078;15.536;2023-07-24T21:15:21;6.78;;;1.02;;